createdAt,value
2023-03-26T00:02:04.556Z,64.49
2023-03-26T00:04:34.544Z,64.30
2023-03-26T00:07:03.269Z,64.22
2023-03-26T00:09:31.365Z,64.11
2023-03-26T00:11:59.439Z,64.06
2023-03-26T00:14:29.305Z,63.86
2023-03-26T00:16:57.217Z,63.47
2023-03-26T00:19:25.579Z,63.32
2023-03-26T00:21:53.683Z,63.30
2023-03-26T00:24:21.613Z,63.14
2023-03-26T00:26:54.371Z,63.09
2023-03-26T00:29:28.190Z,62.63
2023-03-26T00:31:56.058Z,62.40
2023-03-26T00:34:24.963Z,62.52
2023-03-26T00:36:56.002Z,62.06
2023-03-26T00:39:25.679Z,61.89
2023-03-26T00:41:54.864Z,62.00
2023-03-26T00:44:23.512Z,61.79
2023-03-26T00:46:51.506Z,61.54
2023-03-26T00:49:19.409Z,61.55
2023-03-26T00:51:47.390Z,61.56
2023-03-26T00:54:15.761Z,61.30
2023-03-26T00:56:43.680Z,60.96
2023-03-26T00:59:11.933Z,61.15
2023-03-26T01:01:39.976Z,61.05
2023-03-26T01:04:27.970Z,60.87
2023-03-26T01:07:04.162Z,60.68
2023-03-26T01:09:36.023Z,60.95
2023-03-26T01:12:08.201Z,60.92
2023-03-26T01:14:36.273Z,60.61
2023-03-26T01:17:07.210Z,60.80
2023-03-26T01:19:50.562Z,60.69
2023-03-26T01:22:25.373Z,60.48
2023-03-26T01:24:56.485Z,60.44
2023-03-26T01:27:39.082Z,60.78
2023-03-26T01:30:29.458Z,60.57
2023-03-26T01:33:16.296Z,60.55
2023-03-26T01:36:10.114Z,60.65
2023-03-26T01:38:52.087Z,60.59
2023-03-26T01:41:46.937Z,60.77
2023-03-26T01:44:30.416Z,60.42
2023-03-26T01:47:04.681Z,60.35
2023-03-26T01:49:32.707Z,60.51
2023-03-26T01:52:00.740Z,60.51
2023-03-26T01:54:31.792Z,60.42
2023-03-26T01:57:27.751Z,60.41
2023-03-26T02:00:12.294Z,60.16
2023-03-26T02:02:55.196Z,60.41
2023-03-26T02:05:32.801Z,60.53
2023-03-26T02:08:12.019Z,60.50
2023-03-26T02:10:44.383Z,60.47
2023-03-26T02:13:13.306Z,60.44
2023-03-26T02:15:41.621Z,60.54
2023-03-26T02:18:13.567Z,60.46
2023-03-26T02:20:41.861Z,60.56
2023-03-26T02:23:09.929Z,60.72
2023-03-26T02:25:39.975Z,60.87
2023-03-26T02:28:07.893Z,61.08
2023-03-26T02:30:35.807Z,61.10
2023-03-26T02:33:03.840Z,61.14
2023-03-26T02:35:31.850Z,61.25
2023-03-26T02:38:00.046Z,61.46
2023-03-26T02:40:27.927Z,61.47
2023-03-26T02:42:55.738Z,61.51
2023-03-26T02:45:23.749Z,61.77
2023-03-26T02:47:52.344Z,61.78
2023-03-26T02:50:20.394Z,62.21
2023-03-26T02:52:49.972Z,62.23
2023-03-26T02:55:18.009Z,62.06
2023-03-26T02:57:45.873Z,62.22
2023-03-26T03:00:14.378Z,62.35
2023-03-26T03:02:44.471Z,62.23
2023-03-26T03:05:12.698Z,62.23
2023-03-26T03:07:40.713Z,62.03
2023-03-26T03:10:10.118Z,62.01
2023-03-26T03:12:38.035Z,62.09
2023-03-26T03:15:07.261Z,62.00
2023-03-26T03:17:35.630Z,62.09
2023-03-26T03:20:04.519Z,62.35
2023-03-26T03:22:33.612Z,62.68
2023-03-26T03:25:01.798Z,62.77
2023-03-26T03:27:30.902Z,62.79
2023-03-26T03:29:59.261Z,63.01
2023-03-26T03:32:27.738Z,63.34
2023-03-26T03:34:55.597Z,63.40
2023-03-26T03:37:24.717Z,63.51
2023-03-26T03:39:52.679Z,63.58
2023-03-26T03:42:20.809Z,63.81
2023-03-26T03:44:48.759Z,63.85
2023-03-26T03:47:16.669Z,63.84
2023-03-26T03:49:44.453Z,64.05
2023-03-26T03:52:12.266Z,64.29
2023-03-26T03:54:40.128Z,64.29
2023-03-26T03:57:08.011Z,64.26
2023-03-26T03:59:35.899Z,64.49
2023-03-26T04:02:03.905Z,64.57
2023-03-26T04:04:32.898Z,64.53
2023-03-26T04:07:01.335Z,64.32
2023-03-26T04:09:29.250Z,64.41
2023-03-26T04:11:57.153Z,64.49
2023-03-26T04:14:25.178Z,64.42
2023-03-26T04:16:53.074Z,64.46
2023-03-26T04:19:21.282Z,64.39
2023-03-26T04:21:49.596Z,64.42
2023-03-26T04:24:17.542Z,64.32
2023-03-26T04:26:48.235Z,64.23
2023-03-26T04:29:18.374Z,64.30
2023-03-26T04:31:47.243Z,64.30
2023-03-26T04:34:24.435Z,64.25
2023-03-26T04:36:55.970Z,64.26
2023-03-26T04:39:29.349Z,64.46
2023-03-26T04:41:57.985Z,64.86
2023-03-26T04:44:26.147Z,65.05
2023-03-26T04:46:55.289Z,65.01
2023-03-26T04:49:23.320Z,65.11
2023-03-26T04:51:51.472Z,65.19
2023-03-26T04:54:22.438Z,65.10
2023-03-26T04:56:56.829Z,65.13
2023-03-26T04:59:31.574Z,65.33
2023-03-26T05:02:00.368Z,65.23
2023-03-26T05:04:36.819Z,65.16
2023-03-26T05:07:05.112Z,65.20
2023-03-26T05:09:33.385Z,65.36
2023-03-26T05:12:01.474Z,65.42
2023-03-26T05:14:29.518Z,65.49
2023-03-26T05:16:57.582Z,65.39
2023-03-26T05:19:25.409Z,65.28
2023-03-26T05:21:53.217Z,65.19
2023-03-26T05:24:21.093Z,65.26
2023-03-26T05:26:49.071Z,65.07
2023-03-26T05:29:17.966Z,64.96
2023-03-26T05:31:46.095Z,64.68
2023-03-26T05:34:14.097Z,65.04
2023-03-26T05:36:42.642Z,64.89
2023-03-26T05:39:10.859Z,64.52
2023-03-26T05:41:38.784Z,64.42
2023-03-26T05:44:06.757Z,64.12
2023-03-26T05:46:34.809Z,64.15
2023-03-26T05:49:02.687Z,64.05
2023-03-26T05:51:30.686Z,63.91
2023-03-26T05:53:58.593Z,63.83
2023-03-26T05:56:26.512Z,63.65
2023-03-26T05:58:57.255Z,63.52
2023-03-26T06:01:25.668Z,63.27
2023-03-26T06:03:53.762Z,63.12
2023-03-26T06:06:21.940Z,62.73
2023-03-26T06:09:01.560Z,62.50
2023-03-26T06:11:32.210Z,62.36
2023-03-26T06:14:01.081Z,62.40
2023-03-26T06:16:29.061Z,61.64
2023-03-26T06:18:57.831Z,61.35
2023-03-26T06:21:26.754Z,61.10
2023-03-26T06:23:55.503Z,60.89
2023-03-26T06:26:23.530Z,60.29
2023-03-26T06:28:51.468Z,59.87
2023-03-26T06:31:19.606Z,59.91
2023-03-26T06:33:48.955Z,59.74
2023-03-26T06:36:16.988Z,59.15
2023-03-26T06:38:44.933Z,58.34
2023-03-26T06:41:13.141Z,58.28
2023-03-26T06:43:40.956Z,58.18
2023-03-26T06:46:09.263Z,58.23
2023-03-26T06:48:37.257Z,57.95
2023-03-26T06:51:05.891Z,57.63
2023-03-26T06:53:33.821Z,57.47
2023-03-26T06:56:03.255Z,56.21
2023-03-26T06:58:31.380Z,55.94
2023-03-26T07:00:59.685Z,56.34
2023-03-26T07:03:28.386Z,56.68
2023-03-26T07:05:56.525Z,56.63
2023-03-26T07:08:26.311Z,55.55
2023-03-26T07:10:54.622Z,54.92
2023-03-26T07:13:22.743Z,54.98
2023-03-26T07:15:50.826Z,54.72
2023-03-26T07:18:18.657Z,55.03
2023-03-26T07:20:46.906Z,53.87
2023-03-26T07:23:15.776Z,53.90
2023-03-26T07:25:44.100Z,53.12
2023-03-26T07:28:39.464Z,52.77
2023-03-26T07:31:24.819Z,52.61
2023-03-26T07:34:04.041Z,52.67
2023-03-26T07:37:03.727Z,52.25
2023-03-26T07:39:57.952Z,51.13
2023-03-26T07:42:34.460Z,51.28
2023-03-26T07:45:22.625Z,50.64
2023-03-26T07:47:53.639Z,50.15
2023-03-26T07:50:24.094Z,51.06
2023-03-26T07:52:55.058Z,50.83
2023-03-26T07:55:25.050Z,50.09
2023-03-26T07:57:55.600Z,49.80
2023-03-26T08:00:42.776Z,50.39
2023-03-26T08:03:22.871Z,50.24
2023-03-26T08:05:50.714Z,49.52
2023-03-26T08:08:44.543Z,49.20
2023-03-26T08:11:24.150Z,48.46
2023-03-26T08:14:07.115Z,47.76
2023-03-26T08:16:41.922Z,47.97
2023-03-26T08:19:33.330Z,47.04
2023-03-26T08:22:28.785Z,46.62
2023-03-26T08:25:18.490Z,46.50
2023-03-26T08:28:21.824Z,46.63
2023-03-26T08:30:50.556Z,47.02
2023-03-26T08:33:20.666Z,45.70
2023-03-26T08:35:49.261Z,46.24
2023-03-26T08:38:20.563Z,46.33
2023-03-26T08:41:10.421Z,45.45
2023-03-26T08:43:55.098Z,45.07
2023-03-26T08:46:42.181Z,43.59
2023-03-26T08:49:48.128Z,43.18
2023-03-26T08:52:28.345Z,43.96
2023-03-26T08:55:35.347Z,43.26
2023-03-26T08:58:53.356Z,42.53
2023-03-26T09:01:56.826Z,42.59
2023-03-26T09:04:43.259Z,41.88
2023-03-26T09:07:22.929Z,42.79
2023-03-26T09:10:12.146Z,41.53
2023-03-26T09:13:15.401Z,40.48
2023-03-26T09:16:11.677Z,40.52
2023-03-26T09:19:18.163Z,39.49
2023-03-26T09:22:04.561Z,38.84
2023-03-26T09:24:32.536Z,38.38
2023-03-26T09:27:30.519Z,37.39
2023-03-26T09:30:01.264Z,37.18
2023-03-26T09:32:39.121Z,37.08
2023-03-26T09:35:16.107Z,36.27
2023-03-26T09:38:11.772Z,37.43
2023-03-26T09:40:59.523Z,37.23
2023-03-26T09:43:42.348Z,36.75
2023-03-26T09:46:21.025Z,35.61
2023-03-26T09:48:54.562Z,36.23
2023-03-26T09:51:53.563Z,36.56
2023-03-26T09:54:44.298Z,37.26
2023-03-26T09:57:15.509Z,36.64
2023-03-26T09:59:57.693Z,36.46
2023-03-26T10:02:47.659Z,37.06
2023-03-26T10:05:20.077Z,37.40
2023-03-26T10:08:04.076Z,36.63
2023-03-26T10:10:44.274Z,35.41
2023-03-26T10:13:35.527Z,35.87
2023-03-26T10:16:15.609Z,35.15
2023-03-26T10:19:07.816Z,34.67
2023-03-26T10:21:53.559Z,33.90
2023-03-26T10:24:34.526Z,34.23
2023-03-26T10:27:11.494Z,33.81
2023-03-26T10:30:00.289Z,34.39
2023-03-26T10:33:16.126Z,32.78
2023-03-26T10:35:50.302Z,33.18
2023-03-26T10:38:21.319Z,33.93
2023-03-26T10:41:06.094Z,33.71
2023-03-26T10:44:09.059Z,32.23
2023-03-26T10:46:44.541Z,30.95
2023-03-26T10:49:40.321Z,30.76
2023-03-26T10:52:12.638Z,30.32
2023-03-26T10:55:04.198Z,30.99
2023-03-26T10:57:52.445Z,32.44
2023-03-26T11:00:26.839Z,31.27
2023-03-26T11:03:16.667Z,30.97
2023-03-26T11:06:02.942Z,30.90
2023-03-26T11:08:38.181Z,30.19
2023-03-26T11:11:24.175Z,30.81
2023-03-26T11:14:03.676Z,30.76
2023-03-26T11:16:40.754Z,29.74
2023-03-26T11:19:17.001Z,29.55
2023-03-26T11:21:54.403Z,28.59
2023-03-26T11:24:46.950Z,27.81
2023-03-26T11:27:32.720Z,28.34
2023-03-26T11:30:34.334Z,28.20
2023-03-26T11:33:06.711Z,28.57
2023-03-26T11:35:46.789Z,29.07
2023-03-26T11:38:29.005Z,28.87
2023-03-26T11:40:59.308Z,30.08
2023-03-26T11:43:35.553Z,30.39
2023-03-26T11:46:06.394Z,30.64
2023-03-26T11:48:39.820Z,30.60
2023-03-26T11:51:10.829Z,30.57
2023-03-26T11:53:39.956Z,30.49
2023-03-26T11:56:18.402Z,30.38
2023-03-26T11:59:01.839Z,31.10
2023-03-26T12:01:50.714Z,31.02
2023-03-26T12:04:25.734Z,30.19
2023-03-26T12:06:57.746Z,30.06
2023-03-26T12:09:26.735Z,30.68
2023-03-26T12:12:01.296Z,31.01
2023-03-26T12:14:33.262Z,30.36
2023-03-26T12:17:05.290Z,30.78
2023-03-26T12:19:42.542Z,30.53
2023-03-26T12:22:30.862Z,30.06
2023-03-26T12:25:21.266Z,29.85
2023-03-26T12:28:08.166Z,30.69
2023-03-26T12:30:41.310Z,31.43
2023-03-26T12:33:34.167Z,31.74
2023-03-26T12:36:23.301Z,31.75
2023-03-26T12:39:43.163Z,30.74
2023-03-26T12:43:40.534Z,29.99
2023-03-26T12:44:54.390Z,30.74
2023-03-26T12:47:58.452Z,30.98
2023-03-26T12:50:34.464Z,31.29
2023-03-26T12:53:12.492Z,31.59
2023-03-26T12:55:49.840Z,31.76
2023-03-26T12:58:51.496Z,31.27
2023-03-26T13:01:47.492Z,31.45
2023-03-26T13:04:43.635Z,31.15
2023-03-26T13:07:38.409Z,31.19
2023-03-26T13:10:27.958Z,31.40
2023-03-26T13:13:14.965Z,30.95
2023-03-26T13:15:52.885Z,31.33
2023-03-26T13:18:48.903Z,31.77
2023-03-26T13:21:39.076Z,32.35
2023-03-26T13:24:13.771Z,31.86
2023-03-26T13:26:56.444Z,31.15
2023-03-26T13:30:01.617Z,31.45
2023-03-26T13:32:44.050Z,30.61
2023-03-26T13:35:34.595Z,29.85
2023-03-26T13:38:20.698Z,30.32
2023-03-26T13:41:11.780Z,31.04
2023-03-26T13:43:54.281Z,30.70
2023-03-26T13:46:34.523Z,30.39
2023-03-26T13:49:08.256Z,30.43
2023-03-26T13:51:45.019Z,31.31
2023-03-26T13:54:44.687Z,31.81
2023-03-26T13:57:41.588Z,31.63
2023-03-26T14:00:21.857Z,31.58
2023-03-26T14:02:58.147Z,31.73
2023-03-26T14:05:47.235Z,31.78
2023-03-26T14:08:31.743Z,32.26
2023-03-26T14:11:21.535Z,32.40
2023-03-26T14:14:01.284Z,32.61
2023-03-26T14:16:36.528Z,32.27
2023-03-26T14:19:36.088Z,32.16
2023-03-26T14:22:35.297Z,32.47
2023-03-26T14:25:08.679Z,32.62
2023-03-26T14:28:12.975Z,32.68
2023-03-26T14:31:08.770Z,32.71
2023-03-26T14:34:00.439Z,32.61
2023-03-26T14:36:53.001Z,32.47
2023-03-26T14:40:04.999Z,32.69
2023-03-26T14:42:43.429Z,32.69
2023-03-26T14:45:49.798Z,32.23
2023-03-26T14:48:36.661Z,32.43
2023-03-26T14:51:41.512Z,33.16
2023-03-26T14:54:14.798Z,33.70
2023-03-26T14:57:31.737Z,34.17
2023-03-26T15:00:22.427Z,34.32
2023-03-26T15:03:34.829Z,34.79
2023-03-26T15:06:15.403Z,35.08
2023-03-26T15:09:11.540Z,34.74
2023-03-26T15:12:20.935Z,34.57
2023-03-26T15:15:17.193Z,35.32
2023-03-26T15:17:58.596Z,36.07
2023-03-26T15:20:39.666Z,37.27
2023-03-26T15:23:47.492Z,37.74
2023-03-26T15:26:46.122Z,38.40
2023-03-26T15:29:36.915Z,39.01
2023-03-26T15:32:35.020Z,39.14
2023-03-26T15:35:19.927Z,39.40
2023-03-26T15:38:09.080Z,38.85
2023-03-26T15:40:49.971Z,38.40
2023-03-26T15:43:23.136Z,38.30
2023-03-26T15:46:15.009Z,38.23
2023-03-26T15:49:14.619Z,37.88
2023-03-26T15:51:47.608Z,37.75
2023-03-26T15:54:25.732Z,37.90
2023-03-26T15:57:16.559Z,38.18
2023-03-26T16:00:32.041Z,38.40
2023-03-26T16:03:11.686Z,38.36
2023-03-26T16:06:02.343Z,38.68
2023-03-26T16:08:53.170Z,39.12
2023-03-26T16:12:09.278Z,39.85
2023-03-26T16:14:47.610Z,40.17
2023-03-26T16:17:23.335Z,40.48
2023-03-26T16:20:33.166Z,40.86
2023-03-26T16:23:06.224Z,41.04
2023-03-26T16:25:53.137Z,41.39
2023-03-26T16:28:29.307Z,41.55
2023-03-26T16:31:36.579Z,41.79
2023-03-26T16:34:08.356Z,42.16
2023-03-26T16:36:44.320Z,42.41
2023-03-26T16:39:19.181Z,42.70
2023-03-26T16:41:53.063Z,42.97
2023-03-26T16:44:56.785Z,43.21
2023-03-26T16:48:03.771Z,43.34
2023-03-26T16:50:50.108Z,43.56
2023-03-26T16:53:41.887Z,44.01
2023-03-26T16:56:28.071Z,44.42
2023-03-26T16:59:01.841Z,44.70
2023-03-26T17:01:45.969Z,44.93
2023-03-26T17:04:20.691Z,45.12
2023-03-26T17:07:01.769Z,45.42
2023-03-26T17:09:58.566Z,45.56
2023-03-26T17:12:26.308Z,45.86
2023-03-26T17:15:36.809Z,46.07
2023-03-26T17:18:35.829Z,46.34
2023-03-26T17:21:11.302Z,47.26
2023-03-26T17:24:06.471Z,47.22
2023-03-26T17:26:52.215Z,47.11
2023-03-26T17:29:52.191Z,46.99
2023-03-26T17:32:21.613Z,47.27
2023-03-26T17:34:58.316Z,47.12
2023-03-26T17:37:55.915Z,47.29
2023-03-26T17:40:51.584Z,47.37
2023-03-26T17:43:50.075Z,47.58
2023-03-26T17:46:39.439Z,47.82
2023-03-26T17:49:13.925Z,47.52
2023-03-26T17:51:52.602Z,47.92
2023-03-26T17:54:34.815Z,48.12
2023-03-26T17:57:11.179Z,47.92
2023-03-26T17:59:41.139Z,47.92
2023-03-26T18:02:16.316Z,48.43
2023-03-26T18:04:48.277Z,48.78
2023-03-26T18:07:32.000Z,48.98
2023-03-26T18:10:33.526Z,49.24
2023-03-26T18:13:35.499Z,49.27
2023-03-26T18:16:15.847Z,49.43
2023-03-26T18:18:57.826Z,49.29
2023-03-26T18:21:37.625Z,49.58
2023-03-26T18:24:21.898Z,50.30
2023-03-26T18:26:56.507Z,50.04
2023-03-26T18:29:27.561Z,50.20
2023-03-26T18:31:58.255Z,50.66
2023-03-26T18:34:29.668Z,50.54
2023-03-26T18:37:18.040Z,50.93
2023-03-26T18:39:58.132Z,50.83
2023-03-26T18:42:28.334Z,50.87
2023-03-26T18:44:59.842Z,51.00
2023-03-26T18:47:31.675Z,51.30
2023-03-26T18:50:00.175Z,51.53
2023-03-26T18:52:31.771Z,52.32
2023-03-26T18:55:01.724Z,52.15
2023-03-26T18:57:29.979Z,52.11
2023-03-26T19:00:15.582Z,52.20
2023-03-26T19:02:45.288Z,52.25
2023-03-26T19:05:15.522Z,52.44
2023-03-26T19:07:46.430Z,52.53
2023-03-26T19:10:18.939Z,52.82
2023-03-26T19:12:56.021Z,53.14
2023-03-26T19:15:27.221Z,53.22
2023-03-26T19:18:03.835Z,53.54
2023-03-26T19:20:39.224Z,53.46
2023-03-26T19:23:13.374Z,53.63
2023-03-26T19:25:51.383Z,53.85
2023-03-26T19:28:25.833Z,53.92
2023-03-26T19:30:57.708Z,54.41
2023-03-26T19:33:34.596Z,54.84
2023-03-26T19:36:18.070Z,54.74
2023-03-26T19:38:50.269Z,54.88
2023-03-26T19:41:32.438Z,55.16
2023-03-26T19:44:03.302Z,55.27
2023-03-26T19:46:34.549Z,55.77
2023-03-26T19:49:30.072Z,55.94
2023-03-26T19:52:12.709Z,56.62
2023-03-26T19:55:00.143Z,56.62
2023-03-26T19:57:33.108Z,56.59
2023-03-26T20:00:01.017Z,56.59
2023-03-26T20:02:29.120Z,56.92
2023-03-26T20:04:57.645Z,57.36
2023-03-26T20:07:35.399Z,57.28
2023-03-26T20:10:05.680Z,57.35
2023-03-26T20:12:33.873Z,57.53
2023-03-26T20:15:02.156Z,57.38
2023-03-26T20:17:31.115Z,57.57
2023-03-26T20:19:59.783Z,57.76
2023-03-26T20:22:27.822Z,58.18
2023-03-26T20:24:55.707Z,58.19
2023-03-26T20:27:23.616Z,58.11
2023-03-26T20:29:51.548Z,58.39
2023-03-26T20:32:26.291Z,58.71
2023-03-26T20:34:55.102Z,58.67
2023-03-26T20:37:23.412Z,58.67
2023-03-26T20:39:51.430Z,58.77
2023-03-26T20:42:19.426Z,59.03
2023-03-26T20:44:47.438Z,59.22
2023-03-26T20:47:15.335Z,59.43
2023-03-26T20:49:43.241Z,59.57
2023-03-26T20:52:13.782Z,59.85
2023-03-26T20:54:42.011Z,60.09
2023-03-26T20:57:13.778Z,59.79
2023-03-26T20:59:42.228Z,59.91
2023-03-26T21:02:12.110Z,60.30
2023-03-26T21:04:40.284Z,60.20
2023-03-26T21:07:17.752Z,60.32
2023-03-26T21:09:48.716Z,60.52
2023-03-26T21:12:28.129Z,60.40
2023-03-26T21:14:56.813Z,60.79
2023-03-26T21:17:25.015Z,60.86
2023-03-26T21:19:53.510Z,60.99
2023-03-26T21:22:43.438Z,61.13
2023-03-26T21:25:21.087Z,61.21
2023-03-26T21:28:00.733Z,61.41
2023-03-26T21:30:28.977Z,61.53
2023-03-26T21:32:56.945Z,61.70
2023-03-26T21:35:25.361Z,61.81
2023-03-26T21:37:54.202Z,61.92
2023-03-26T21:40:22.345Z,62.10
2023-03-26T21:42:53.473Z,62.21
2023-03-26T21:45:22.328Z,62.26
2023-03-26T21:47:50.789Z,62.17
2023-03-26T21:50:21.968Z,62.48
2023-03-26T21:52:51.836Z,62.48
2023-03-26T21:55:22.105Z,62.58
2023-03-26T21:58:11.148Z,62.70
2023-03-26T22:01:20.799Z,62.79
2023-03-26T22:04:00.501Z,62.78
2023-03-26T22:06:43.894Z,62.86
2023-03-26T22:09:13.741Z,63.12
2023-03-26T22:11:42.188Z,63.36
2023-03-26T22:14:13.256Z,63.29
2023-03-26T22:16:41.690Z,63.68
2023-03-26T22:19:10.823Z,63.65
2023-03-26T22:21:38.895Z,63.84
2023-03-26T22:24:07.560Z,63.88
2023-03-26T22:26:36.884Z,64.07
2023-03-26T22:29:05.417Z,64.08
2023-03-26T22:31:33.553Z,64.14
2023-03-26T22:34:01.541Z,64.17
2023-03-26T22:36:29.637Z,64.01
2023-03-26T22:38:57.575Z,64.25
2023-03-26T22:41:26.204Z,64.22
2023-03-26T22:43:54.961Z,64.36
2023-03-26T22:46:23.808Z,64.42
2023-03-26T22:48:51.766Z,64.29
2023-03-26T22:51:19.743Z,64.04
2023-03-26T22:53:47.734Z,64.07
2023-03-26T22:56:15.886Z,64.26
2023-03-26T22:58:43.717Z,64.15
2023-03-26T23:01:16.898Z,64.30
2023-03-26T23:03:45.005Z,64.35
2023-03-26T23:06:13.486Z,64.25
2023-03-26T23:08:41.894Z,64.31
2023-03-26T23:11:16.243Z,64.43
2023-03-26T23:13:45.347Z,64.68
2023-03-26T23:16:14.331Z,65.02
2023-03-26T23:18:42.437Z,64.80
2023-03-26T23:21:19.679Z,64.70
2023-03-26T23:23:49.449Z,64.86
2023-03-26T23:26:17.875Z,65.13
2023-03-26T23:28:46.059Z,65.40
2023-03-26T23:31:14.595Z,65.48
2023-03-26T23:33:46.715Z,65.30
2023-03-26T23:36:18.361Z,65.61
2023-03-26T23:38:48.623Z,65.84
2023-03-26T23:41:21.540Z,65.82
2023-03-26T23:43:56.880Z,66.03
2023-03-26T23:46:30.999Z,66.42
2023-03-26T23:49:03.484Z,66.39
2023-03-26T23:51:32.163Z,66.43
2023-03-26T23:54:00.656Z,66.39
2023-03-26T23:56:29.911Z,66.51
2023-03-26T23:58:59.374Z,66.31
